< < Back
Terminal Aerodrome Forecast


Current Version              Previous Versions:   1  2  3  4  5  6  7  8  9  

Terminal Aerodrome Forecast

535
FTUS42 KFFC 162300
TAFPDK
TAF
KPDK 162320Z 1700/1724 11006KT P6SM SKC
     FM171200 08010KT P6SM SCT250
     FM171600 10010G20KT P6SM BKN040 BKN250=

Latest METAR

943
SAUS70 KWBC 171300 RRF
MTRPDK
METAR KPDK 171253Z VRB04KT 10SM CLR 06/01 A3043 RMK AO2 SLP311
T00610006


USA.gov is the U.S. government's official web portal to all federal, state and local government web resources and services.